sensor_id;sensor_type;location;lat;lon;timestamp;pressure;altitude;pressure_sealevel;temperature;humidity
50172;BME280;37125;48.824;2.410;2023-07-02T00:00:26;100528.92;;;27.00;36.94
50172;BME280;37125;48.824;2.410;2023-07-02T00:00:57;100531.94;;;26.99;36.97
50172;BME280;37125;48.824;2.410;2023-07-02T00:01:28;100533.31;;;26.97;37.00
50172;BME280;37125;48.824;2.410;2023-07-02T00:01:58;100538.30;;;27.00;36.96
50172;BME280;37125;48.824;2.410;2023-07-02T00:02:29;100537.59;;;26.96;37.00
50172;BME280;37125;48.824;2.410;2023-07-02T00:03:00;100533.21;;;26.95;37.00
50172;BME280;37125;48.824;2.410;2023-07-02T00:03:31;100532.64;;;26.95;37.04
50172;BME280;37125;48.824;2.410;2023-07-02T00:04:02;100534.57;;;26.96;36.96
50172;BME280;37125;48.824;2.410;2023-07-02T00:04:32;100536.41;;;26.96;36.99
50172;BME280;37125;48.824;2.410;2023-07-02T00:05:03;100536.98;;;26.95;36.99
50172;BME280;37125;48.824;2.410;2023-07-02T00:05:34;100535.91;;;26.95;36.92
50172;BME280;37125;48.824;2.410;2023-07-02T00:06:04;100540.11;;;26.95;36.95
50172;BME280;37125;48.824;2.410;2023-07-02T00:06:35;100538.41;;;26.96;36.90
50172;BME280;37125;48.824;2.410;2023-07-02T00:07:06;100533.69;;;26.97;36.90
50172;BME280;37125;48.824;2.410;2023-07-02T00:07:36;100537.46;;;26.95;36.93
50172;BME280;37125;48.824;2.410;2023-07-02T00:08:07;100533.02;;;26.96;36.92
50172;BME280;37125;48.824;2.410;2023-07-02T00:08:38;100533.30;;;26.94;36.95
50172;BME280;37125;48.824;2.410;2023-07-02T00:09:08;100536.11;;;26.92;37.01
50172;BME280;37125;48.824;2.410;2023-07-02T00:09:39;100535.72;;;26.90;37.02
50172;BME280;37125;48.824;2.410;2023-07-02T00:10:10;100536.86;;;26.93;36.95
50172;BME280;37125;48.824;2.410;2023-07-02T00:10:41;100530.38;;;26.96;36.92
50172;BME280;37125;48.824;2.410;2023-07-02T00:11:13;100537.04;;;26.96;36.89
50172;BME280;37125;48.824;2.410;2023-07-02T00:11:45;100530.54;;;26.93;36.96
50172;BME280;37125;48.824;2.410;2023-07-02T00:12:16;100532.55;;;26.96;36.88
50172;BME280;37125;48.824;2.410;2023-07-02T00:12:46;100536.14;;;26.95;36.92
50172;BME280;37125;48.824;2.410;2023-07-02T00:13:17;100536.33;;;26.92;36.95
50172;BME280;37125;48.824;2.410;2023-07-02T00:13:47;100532.89;;;26.95;36.89
50172;BME280;37125;48.824;2.410;2023-07-02T00:14:18;100534.96;;;26.91;36.92
50172;BME280;37125;48.824;2.410;2023-07-02T00:14:49;100530.08;;;26.90;36.95
50172;BME280;37125;48.824;2.410;2023-07-02T00:15:20;100534.14;;;26.90;36.92
50172;BME280;37125;48.824;2.410;2023-07-02T00:15:50;100536.04;;;26.92;36.89
50172;BME280;37125;48.824;2.410;2023-07-02T00:16:21;100532.67;;;26.98;36.79
50172;BME280;37125;48.824;2.410;2023-07-02T00:16:52;100536.09;;;26.98;36.79
50172;BME280;37125;48.824;2.410;2023-07-02T00:17:22;100535.10;;;26.95;36.83
50172;BME280;37125;48.824;2.410;2023-07-02T00:17:53;100534.81;;;26.92;36.93
50172;BME280;37125;48.824;2.410;2023-07-02T00:18:24;100529.53;;;26.88;36.96
50172;BME280;37125;48.824;2.410;2023-07-02T00:18:54;100533.82;;;26.90;36.95
50172;BME280;37125;48.824;2.410;2023-07-02T00:19:25;100531.12;;;26.90;36.95
50172;BME280;37125;48.824;2.410;2023-07-02T00:19:57;100534.48;;;26.89;36.93
50172;BME280;37125;48.824;2.410;2023-07-02T00:20:28;100533.62;;;26.88;36.91
50172;BME280;37125;48.824;2.410;2023-07-02T00:20:59;100531.46;;;26.90;36.88
50172;BME280;37125;48.824;2.410;2023-07-02T00:21:30;100533.33;;;26.89;36.87
50172;BME280;37125;48.824;2.410;2023-07-02T00:22:00;100533.81;;;26.89;36.92
50172;BME280;37125;48.824;2.410;2023-07-02T00:22:31;100528.15;;;26.90;36.91
50172;BME280;37125;48.824;2.410;2023-07-02T00:23:02;100532.97;;;26.89;36.93
50172;BME280;37125;48.824;2.410;2023-07-02T00:23:32;100533.79;;;26.92;36.84
50172;BME280;37125;48.824;2.410;2023-07-02T00:24:04;100532.01;;;26.87;36.93
50172;BME280;37125;48.824;2.410;2023-07-02T00:24:34;100528.25;;;26.88;36.92
50172;BME280;37125;48.824;2.410;2023-07-02T00:25:05;100528.74;;;26.92;36.85
50172;BME280;37125;48.824;2.410;2023-07-02T00:25:36;100527.96;;;26.89;36.90
50172;BME280;37125;48.824;2.410;2023-07-02T00:26:07;100530.52;;;26.90;36.88
50172;BME280;37125;48.824;2.410;2023-07-02T00:26:38;100528.51;;;26.88;36.89
50172;BME280;37125;48.824;2.410;2023-07-02T00:27:08;100530.83;;;26.91;36.80
50172;BME280;37125;48.824;2.410;2023-07-02T00:27:39;100528.50;;;26.90;36.82
50172;BME280;37125;48.824;2.410;2023-07-02T00:28:10;100525.38;;;26.91;36.81
50172;BME280;37125;48.824;2.410;2023-07-02T00:28:40;100527.44;;;26.87;36.89
50172;BME280;37125;48.824;2.410;2023-07-02T00:29:11;100524.78;;;26.87;36.89
50172;BME280;37125;48.824;2.410;2023-07-02T00:29:42;100526.22;;;26.88;36.90
50172;BME280;37125;48.824;2.410;2023-07-02T00:30:13;100526.11;;;26.87;36.86
50172;BME280;37125;48.824;2.410;2023-07-02T00:30:44;100524.53;;;26.84;36.95
50172;BME280;37125;48.824;2.410;2023-07-02T00:31:14;100529.54;;;26.83;36.97
50172;BME280;37125;48.824;2.410;2023-07-02T00:31:45;100526.12;;;26.86;36.93
50172;BME280;37125;48.824;2.410;2023-07-02T00:32:16;100523.25;;;26.89;36.86
50172;BME280;37125;48.824;2.410;2023-07-02T00:32:47;100525.08;;;26.91;36.79
50172;BME280;37125;48.824;2.410;2023-07-02T00:33:17;100526.56;;;26.90;36.84
50172;BME280;37125;48.824;2.410;2023-07-02T00:33:48;100525.28;;;26.85;36.94
50172;BME280;37125;48.824;2.410;2023-07-02T00:34:19;100529.64;;;26.89;36.94
50172;BME280;37125;48.824;2.410;2023-07-02T00:34:50;100528.35;;;26.87;36.95
50172;BME280;37125;48.824;2.410;2023-07-02T00:35:21;100529.05;;;26.85;36.93
50172;BME280;37125;48.824;2.410;2023-07-02T00:35:51;100531.25;;;26.84;36.95
50172;BME280;37125;48.824;2.410;2023-07-02T00:36:22;100532.42;;;26.87;36.91
50172;BME280;37125;48.824;2.410;2023-07-02T00:36:52;100528.27;;;26.89;36.91
50172;BME280;37125;48.824;2.410;2023-07-02T00:37:24;100525.82;;;26.90;36.82
50172;BME280;37125;48.824;2.410;2023-07-02T00:37:54;100532.40;;;26.91;36.85
50172;BME280;37125;48.824;2.410;2023-07-02T00:38:25;100525.84;;;26.86;36.92
50172;BME280;37125;48.824;2.410;2023-07-02T00:38:56;100529.19;;;26.88;36.86
50172;BME280;37125;48.824;2.410;2023-07-02T00:39:28;100532.66;;;26.97;36.67
50172;BME280;37125;48.824;2.410;2023-07-02T00:39:58;100533.88;;;26.88;36.84
50172;BME280;37125;48.824;2.410;2023-07-02T00:40:29;100531.73;;;26.92;36.79
50172;BME280;37125;48.824;2.410;2023-07-02T00:40:59;100531.56;;;26.86;36.89
50172;BME280;37125;48.824;2.410;2023-07-02T00:41:30;100532.48;;;26.91;36.82
50172;BME280;37125;48.824;2.410;2023-07-02T00:42:01;100532.21;;;26.84;36.94
50172;BME280;37125;48.824;2.410;2023-07-02T00:42:32;100530.13;;;26.84;36.92
50172;BME280;37125;48.824;2.410;2023-07-02T00:43:02;100529.46;;;26.81;37.00
50172;BME280;37125;48.824;2.410;2023-07-02T00:43:33;100528.42;;;26.83;36.96
50172;BME280;37125;48.824;2.410;2023-07-02T00:44:04;100527.72;;;26.83;36.98
50172;BME280;37125;48.824;2.410;2023-07-02T00:44:35;100528.30;;;26.84;36.95
50172;BME280;37125;48.824;2.410;2023-07-02T00:45:06;100528.10;;;26.85;36.90
50172;BME280;37125;48.824;2.410;2023-07-02T00:45:37;100529.35;;;26.87;36.89
50172;BME280;37125;48.824;2.410;2023-07-02T00:46:09;100530.10;;;26.86;36.91
50172;BME280;37125;48.824;2.410;2023-07-02T00:46:41;100526.78;;;26.84;36.91
50172;BME280;37125;48.824;2.410;2023-07-02T00:47:13;100529.87;;;26.85;36.94
50172;BME280;37125;48.824;2.410;2023-07-02T00:47:43;100533.53;;;26.85;36.90
50172;BME280;37125;48.824;2.410;2023-07-02T00:48:15;100533.78;;;26.86;36.90
50172;BME280;37125;48.824;2.410;2023-07-02T00:48:47;100532.69;;;26.87;36.89
50172;BME280;37125;48.824;2.410;2023-07-02T00:49:18;100532.91;;;26.84;36.95
50172;BME280;37125;48.824;2.410;2023-07-02T00:49:49;100534.74;;;26.81;37.01
50172;BME280;37125;48.824;2.410;2023-07-02T00:50:21;100530.26;;;26.83;36.97
50172;BME280;37125;48.824;2.410;2023-07-02T00:50:53;100532.36;;;26.82;37.04
50172;BME280;37125;48.824;2.410;2023-07-02T00:51:25;100530.99;;;26.83;37.01
50172;BME280;37125;48.824;2.410;2023-07-02T00:51:56;100532.81;;;26.86;36.96
50172;BME280;37125;48.824;2.410;2023-07-02T00:52:26;100536.38;;;26.90;36.87
50172;BME280;37125;48.824;2.410;2023-07-02T00:52:58;100536.37;;;26.91;36.85
50172;BME280;37125;48.824;2.410;2023-07-02T00:53:28;100535.69;;;26.89;36.96
50172;BME280;37125;48.824;2.410;2023-07-02T00:53:59;100531.53;;;26.86;36.93
50172;BME280;37125;48.824;2.410;2023-07-02T00:54:30;100531.17;;;26.84;36.99
50172;BME280;37125;48.824;2.410;2023-07-02T00:55:01;100532.01;;;26.86;36.93
50172;BME280;37125;48.824;2.410;2023-07-02T00:55:32;100527.37;;;26.86;36.98
50172;BME280;37125;48.824;2.410;2023-07-02T00:56:03;100531.14;;;26.85;36.93
50172;BME280;37125;48.824;2.410;2023-07-02T00:56:33;100533.22;;;26.85;37.02
50172;BME280;37125;48.824;2.410;2023-07-02T00:57:04;100532.04;;;26.83;37.09
50172;BME280;37125;48.824;2.410;2023-07-02T00:57:34;100529.75;;;26.83;37.00
50172;BME280;37125;48.824;2.410;2023-07-02T00:58:05;100529.31;;;26.87;36.93
50172;BME280;37125;48.824;2.410;2023-07-02T00:58:39;100530.46;;;26.88;36.94
50172;BME280;37125;48.824;2.410;2023-07-02T00:59:10;100530.63;;;26.85;36.99
50172;BME280;37125;48.824;2.410;2023-07-02T00:59:41;100529.97;;;26.85;37.03
50172;BME280;37125;48.824;2.410;2023-07-02T01:00:12;100535.89;;;26.85;37.01
50172;BME280;37125;48.824;2.410;2023-07-02T01:00:43;100530.06;;;26.81;37.11
50172;BME280;37125;48.824;2.410;2023-07-02T01:01:14;100532.50;;;26.84;37.06
50172;BME280;37125;48.824;2.410;2023-07-02T01:01:45;100532.46;;;26.85;37.01
50172;BME280;37125;48.824;2.410;2023-07-02T01:02:15;100530.53;;;26.82;37.05
50172;BME280;37125;48.824;2.410;2023-07-02T01:02:53;100532.63;;;26.90;36.89
50172;BME280;37125;48.824;2.410;2023-07-02T01:03:24;100533.38;;;26.84;36.99
50172;BME280;37125;48.824;2.410;2023-07-02T01:03:57;100533.95;;;26.79;37.08
50172;BME280;37125;48.824;2.410;2023-07-02T01:04:28;100533.24;;;26.81;37.04
50172;BME280;37125;48.824;2.410;2023-07-02T01:04:59;100535.35;;;26.79;37.07
50172;BME280;37125;48.824;2.410;2023-07-02T01:05:29;100536.85;;;26.79;37.08
50172;BME280;37125;48.824;2.410;2023-07-02T01:06:00;100534.61;;;26.82;37.02
50172;BME280;37125;48.824;2.410;2023-07-02T01:06:32;100533.42;;;26.83;36.98
50172;BME280;37125;48.824;2.410;2023-07-02T01:07:03;100532.40;;;26.82;36.99
50172;BME280;37125;48.824;2.410;2023-07-02T01:07:34;100535.94;;;26.82;36.99
50172;BME280;37125;48.824;2.410;2023-07-02T01:08:05;100532.80;;;26.84;36.96
50172;BME280;37125;48.824;2.410;2023-07-02T01:08:35;100531.09;;;26.82;37.01
50172;BME280;37125;48.824;2.410;2023-07-02T01:09:07;100532.25;;;26.81;37.02
50172;BME280;37125;48.824;2.410;2023-07-02T01:09:38;100531.73;;;26.81;36.99
50172;BME280;37125;48.824;2.410;2023-07-02T01:10:09;100533.06;;;26.83;37.00
50172;BME280;37125;48.824;2.410;2023-07-02T01:10:39;100535.43;;;26.82;36.99
50172;BME280;37125;48.824;2.410;2023-07-02T01:11:10;100535.00;;;26.81;36.98
50172;BME280;37125;48.824;2.410;2023-07-02T01:11:43;100536.25;;;26.82;36.98
50172;BME280;37125;48.824;2.410;2023-07-02T01:12:16;100532.67;;;26.85;36.96
50172;BME280;37125;48.824;2.410;2023-07-02T01:12:48;100536.47;;;26.87;36.93
50172;BME280;37125;48.824;2.410;2023-07-02T01:13:21;100537.75;;;26.85;37.01
50172;BME280;37125;48.824;2.410;2023-07-02T01:13:54;100534.96;;;26.81;37.02
50172;BME280;37125;48.824;2.410;2023-07-02T01:14:27;100538.56;;;26.80;37.09
50172;BME280;37125;48.824;2.410;2023-07-02T01:15:02;100539.97;;;26.80;37.09
50172;BME280;37125;48.824;2.410;2023-07-02T01:15:34;100543.91;;;26.80;37.08
50172;BME280;37125;48.824;2.410;2023-07-02T01:16:05;100541.43;;;26.79;37.12
50172;BME280;37125;48.824;2.410;2023-07-02T01:16:37;100541.97;;;26.79;37.12
50172;BME280;37125;48.824;2.410;2023-07-02T01:17:09;100540.48;;;26.80;37.11
50172;BME280;37125;48.824;2.410;2023-07-02T01:17:40;100538.75;;;26.83;37.04
50172;BME280;37125;48.824;2.410;2023-07-02T01:18:14;100543.33;;;26.81;37.09
50172;BME280;37125;48.824;2.410;2023-07-02T01:18:45;100543.35;;;26.81;37.08
50172;BME280;37125;48.824;2.410;2023-07-02T01:19:38;100543.23;;;26.80;37.09
50172;BME280;37125;48.824;2.410;2023-07-02T01:20:11;100545.46;;;26.81;37.13
50172;BME280;37125;48.824;2.410;2023-07-02T01:20:43;100544.09;;;26.79;37.13
50172;BME280;37125;48.824;2.410;2023-07-02T01:21:14;100545.59;;;26.78;37.19
50172;BME280;37125;48.824;2.410;2023-07-02T01:21:45;100546.19;;;26.77;37.24
50172;BME280;37125;48.824;2.410;2023-07-02T01:22:16;100542.46;;;26.80;37.18
50172;BME280;37125;48.824;2.410;2023-07-02T01:22:48;100542.55;;;26.83;37.13
50172;BME280;37125;48.824;2.410;2023-07-02T01:23:20;100542.50;;;26.82;37.14
50172;BME280;37125;48.824;2.410;2023-07-02T01:23:51;100548.98;;;26.81;37.18
50172;BME280;37125;48.824;2.410;2023-07-02T01:24:22;100541.53;;;26.81;37.18
50172;BME280;37125;48.824;2.410;2023-07-02T01:24:53;100548.20;;;26.82;37.16
50172;BME280;37125;48.824;2.410;2023-07-02T01:25:24;100546.79;;;26.81;37.18
50172;BME280;37125;48.824;2.410;2023-07-02T01:25:55;100546.29;;;26.80;37.22
50172;BME280;37125;48.824;2.410;2023-07-02T01:26:28;100549.70;;;26.80;37.23
50172;BME280;37125;48.824;2.410;2023-07-02T01:26:59;100549.48;;;26.78;37.23
50172;BME280;37125;48.824;2.410;2023-07-02T01:27:31;100549.22;;;26.81;37.22
50172;BME280;37125;48.824;2.410;2023-07-02T01:28:02;100548.12;;;26.80;37.22
50172;BME280;37125;48.824;2.410;2023-07-02T01:28:35;100547.23;;;26.82;37.18
50172;BME280;37125;48.824;2.410;2023-07-02T01:29:15;100547.79;;;26.82;37.15
50172;BME280;37125;48.824;2.410;2023-07-02T01:29:46;100545.30;;;26.84;37.13
50172;BME280;37125;48.824;2.410;2023-07-02T01:30:17;100544.87;;;26.80;37.17
50172;BME280;37125;48.824;2.410;2023-07-02T01:30:47;100548.01;;;26.80;37.15
50172;BME280;37125;48.824;2.410;2023-07-02T01:31:18;100549.94;;;26.78;37.22
50172;BME280;37125;48.824;2.410;2023-07-02T01:31:49;100546.36;;;26.78;37.23
50172;BME280;37125;48.824;2.410;2023-07-02T01:32:19;100546.42;;;26.78;37.23
50172;BME280;37125;48.824;2.410;2023-07-02T01:32:50;100546.55;;;26.74;37.33
50172;BME280;37125;48.824;2.410;2023-07-02T01:33:21;100548.13;;;26.79;37.17
50172;BME280;37125;48.824;2.410;2023-07-02T01:33:51;100551.04;;;26.84;37.08
50172;BME280;37125;48.824;2.410;2023-07-02T01:34:22;100552.12;;;26.81;37.10
50172;BME280;37125;48.824;2.410;2023-07-02T01:34:53;100553.04;;;26.78;37.17
50172;BME280;37125;48.824;2.410;2023-07-02T01:35:24;100552.67;;;26.76;37.18
50172;BME280;37125;48.824;2.410;2023-07-02T01:35:54;100553.93;;;26.76;37.21
50172;BME280;37125;48.824;2.410;2023-07-02T01:36:25;100555.70;;;26.76;37.16
50172;BME280;37125;48.824;2.410;2023-07-02T01:36:55;100557.43;;;26.76;37.18
50172;BME280;37125;48.824;2.410;2023-07-02T01:37:26;100555.61;;;26.75;37.20
50172;BME280;37125;48.824;2.410;2023-07-02T01:37:57;100555.49;;;26.74;37.23
50172;BME280;37125;48.824;2.410;2023-07-02T01:38:27;100557.38;;;26.75;37.24
50172;BME280;37125;48.824;2.410;2023-07-02T01:38:58;100555.10;;;26.73;37.25
50172;BME280;37125;48.824;2.410;2023-07-02T01:39:29;100557.64;;;26.77;37.16
50172;BME280;37125;48.824;2.410;2023-07-02T01:39:59;100552.45;;;26.73;37.20
50172;BME280;37125;48.824;2.410;2023-07-02T01:40:30;100554.14;;;26.72;37.22
50172;BME280;37125;48.824;2.410;2023-07-02T01:41:00;100555.15;;;26.71;37.29
50172;BME280;37125;48.824;2.410;2023-07-02T01:41:33;100554.52;;;26.70;37.28
50172;BME280;37125;48.824;2.410;2023-07-02T01:42:08;100555.60;;;26.69;37.33
50172;BME280;37125;48.824;2.410;2023-07-02T01:42:39;100556.06;;;26.71;37.28
50172;BME280;37125;48.824;2.410;2023-07-02T01:43:10;100555.73;;;26.75;37.20
50172;BME280;37125;48.824;2.410;2023-07-02T01:43:40;100557.38;;;26.75;37.24
50172;BME280;37125;48.824;2.410;2023-07-02T01:44:11;100556.90;;;26.75;37.19
50172;BME280;37125;48.824;2.410;2023-07-02T01:44:42;100553.38;;;26.71;37.30
50172;BME280;37125;48.824;2.410;2023-07-02T01:45:12;100551.65;;;26.67;37.40
50172;BME280;37125;48.824;2.410;2023-07-02T01:45:43;100551.84;;;26.70;37.31
50172;BME280;37125;48.824;2.410;2023-07-02T01:46:14;100552.54;;;26.68;37.37
50172;BME280;37125;48.824;2.410;2023-07-02T01:46:45;100555.27;;;26.67;37.39
50172;BME280;37125;48.824;2.410;2023-07-02T01:47:16;100552.88;;;26.66;37.37
50172;BME280;37125;48.824;2.410;2023-07-02T01:47:46;100554.21;;;26.71;37.32
50172;BME280;37125;48.824;2.410;2023-07-02T01:48:17;100550.92;;;26.68;37.38
50172;BME280;37125;48.824;2.410;2023-07-02T01:48:48;100554.70;;;26.71;37.35
50172;BME280;37125;48.824;2.410;2023-07-02T01:49:19;100553.23;;;26.74;37.30
50172;BME280;37125;48.824;2.410;2023-07-02T01:49:49;100555.71;;;26.71;37.33
50172;BME280;37125;48.824;2.410;2023-07-02T01:50:20;100553.77;;;26.72;37.31
50172;BME280;37125;48.824;2.410;2023-07-02T01:50:50;100556.01;;;26.70;37.35
50172;BME280;37125;48.824;2.410;2023-07-02T01:51:21;100557.38;;;26.73;37.35
50172;BME280;37125;48.824;2.410;2023-07-02T01:51:52;100555.66;;;26.76;37.27
50172;BME280;37125;48.824;2.410;2023-07-02T01:52:23;100555.95;;;26.75;37.32
50172;BME280;37125;48.824;2.410;2023-07-02T01:52:54;100555.89;;;26.74;37.31
50172;BME280;37125;48.824;2.410;2023-07-02T01:53:24;100551.29;;;26.72;37.36
50172;BME280;37125;48.824;2.410;2023-07-02T01:53:55;100556.07;;;26.71;37.35
50172;BME280;37125;48.824;2.410;2023-07-02T01:54:26;100556.21;;;26.70;37.37
50172;BME280;37125;48.824;2.410;2023-07-02T01:54:57;100556.03;;;26.70;37.35
50172;BME280;37125;48.824;2.410;2023-07-02T01:55:28;100554.59;;;26.70;37.35
50172;BME280;37125;48.824;2.410;2023-07-02T01:55:59;100556.89;;;26.71;37.34
50172;BME280;37125;48.824;2.410;2023-07-02T01:56:29;100554.36;;;26.71;37.37
50172;BME280;37125;48.824;2.410;2023-07-02T01:57:00;100555.34;;;26.73;37.33
50172;BME280;37125;48.824;2.410;2023-07-02T01:57:30;100552.33;;;26.73;37.31
50172;BME280;37125;48.824;2.410;2023-07-02T01:58:01;100555.06;;;26.70;37.35
50172;BME280;37125;48.824;2.410;2023-07-02T01:58:31;100554.35;;;26.67;37.44
50172;BME280;37125;48.824;2.410;2023-07-02T01:59:02;100553.08;;;26.67;37.44
50172;BME280;37125;48.824;2.410;2023-07-02T01:59:33;100556.83;;;26.70;37.36
50172;BME280;37125;48.824;2.410;2023-07-02T02:00:05;100553.65;;;26.69;37.39
50172;BME280;37125;48.824;2.410;2023-07-02T02:00:35;100555.07;;;26.67;37.38
50172;BME280;37125;48.824;2.410;2023-07-02T02:01:06;100555.62;;;26.66;37.40
50172;BME280;37125;48.824;2.410;2023-07-02T02:01:37;100553.45;;;26.67;37.41
50172;BME280;37125;48.824;2.410;2023-07-02T02:02:07;100555.95;;;26.67;37.37
50172;BME280;37125;48.824;2.410;2023-07-02T02:02:38;100555.21;;;26.70;37.34
50172;BME280;37125;48.824;2.410;2023-07-02T02:03:08;100556.51;;;26.71;37.32
50172;BME280;37125;48.824;2.410;2023-07-02T02:03:39;100557.20;;;26.67;37.40
50172;BME280;37125;48.824;2.410;2023-07-02T02:04:10;100559.40;;;26.66;37.46
50172;BME280;37125;48.824;2.410;2023-07-02T02:04:41;100557.23;;;26.63;37.48
50172;BME280;37125;48.824;2.410;2023-07-02T02:05:11;100559.21;;;26.65;37.47
50172;BME280;37125;48.824;2.410;2023-07-02T02:05:42;100558.48;;;26.69;37.40
50172;BME280;37125;48.824;2.410;2023-07-02T02:06:12;100557.86;;;26.67;37.43
50172;BME280;37125;48.824;2.410;2023-07-02T02:06:43;100556.78;;;26.62;37.51
50172;BME280;37125;48.824;2.410;2023-07-02T02:07:14;100554.75;;;26.63;37.53
50172;BME280;37125;48.824;2.410;2023-07-02T02:07:45;100557.00;;;26.65;37.51
50172;BME280;37125;48.824;2.410;2023-07-02T02:08:16;100556.54;;;26.64;37.51
50172;BME280;37125;48.824;2.410;2023-07-02T02:08:46;100558.10;;;26.64;37.51
50172;BME280;37125;48.824;2.410;2023-07-02T02:09:17;100553.98;;;26.67;37.47
50172;BME280;37125;48.824;2.410;2023-07-02T02:09:48;100556.98;;;26.69;37.41
50172;BME280;37125;48.824;2.410;2023-07-02T02:10:18;100554.28;;;26.70;37.39
50172;BME280;37125;48.824;2.410;2023-07-02T02:10:49;100555.81;;;26.68;37.42
50172;BME280;37125;48.824;2.410;2023-07-02T02:11:20;100553.54;;;26.66;37.43
50172;BME280;37125;48.824;2.410;2023-07-02T02:11:50;100557.12;;;26.65;37.46
50172;BME280;37125;48.824;2.410;2023-07-02T02:12:21;100557.87;;;26.65;37.51
50172;BME280;37125;48.824;2.410;2023-07-02T02:12:52;100555.68;;;26.64;37.52
50172;BME280;37125;48.824;2.410;2023-07-02T02:13:22;100554.33;;;26.65;37.50
50172;BME280;37125;48.824;2.410;2023-07-02T02:13:53;100555.77;;;26.66;37.50
50172;BME280;37125;48.824;2.410;2023-07-02T02:14:23;100552.71;;;26.68;37.44
50172;BME280;37125;48.824;2.410;2023-07-02T02:14:54;100551.68;;;26.64;37.55
50172;BME280;37125;48.824;2.410;2023-07-02T02:15:24;100553.71;;;26.64;37.57
50172;BME280;37125;48.824;2.410;2023-07-02T02:15:55;100551.64;;;26.67;37.52
50172;BME280;37125;48.824;2.410;2023-07-02T02:16:26;100550.60;;;26.66;37.50
50172;BME280;37125;48.824;2.410;2023-07-02T02:16:57;100550.78;;;26.67;37.52
50172;BME280;37125;48.824;2.410;2023-07-02T02:17:27;100549.52;;;26.66;37.54
50172;BME280;37125;48.824;2.410;2023-07-02T02:17:58;100551.45;;;26.62;37.63
50172;BME280;37125;48.824;2.410;2023-07-02T02:18:29;100551.58;;;26.61;37.64
50172;BME280;37125;48.824;2.410;2023-07-02T02:18:59;100552.44;;;26.64;37.54
50172;BME280;37125;48.824;2.410;2023-07-02T02:19:30;100556.81;;;26.63;37.54
50172;BME280;37125;48.824;2.410;2023-07-02T02:20:01;100556.22;;;26.65;37.56
50172;BME280;37125;48.824;2.410;2023-07-02T02:20:33;100555.21;;;26.65;37.54
50172;BME280;37125;48.824;2.410;2023-07-02T02:21:03;100556.01;;;26.64;37.56
50172;BME280;37125;48.824;2.410;2023-07-02T02:21:34;100555.89;;;26.63;37.65
50172;BME280;37125;48.824;2.410;2023-07-02T02:22:04;100557.75;;;26.64;37.60
50172;BME280;37125;48.824;2.410;2023-07-02T02:22:35;100555.61;;;26.63;37.60
50172;BME280;37125;48.824;2.410;2023-07-02T02:23:06;100554.53;;;26.66;37.54
50172;BME280;37125;48.824;2.410;2023-07-02T02:23:36;100555.68;;;26.68;37.46
50172;BME280;37125;48.824;2.410;2023-07-02T02:24:07;100555.20;;;26.65;37.53
50172;BME280;37125;48.824;2.410;2023-07-02T02:24:38;100552.23;;;26.65;37.56
50172;BME280;37125;48.824;2.410;2023-07-02T02:25:09;100552.37;;;26.65;37.56
50172;BME280;37125;48.824;2.410;2023-07-02T02:25:39;100553.75;;;26.61;37.61
50172;BME280;37125;48.824;2.410;2023-07-02T02:26:10;100553.91;;;26.64;37.56
50172;BME280;37125;48.824;2.410;2023-07-02T02:26:41;100550.76;;;26.60;37.63
50172;BME280;37125;48.824;2.410;2023-07-02T02:27:11;100553.61;;;26.61;37.60
50172;BME280;37125;48.824;2.410;2023-07-02T02:27:42;100553.69;;;26.64;37.54
50172;BME280;37125;48.824;2.410;2023-07-02T02:28:12;100555.67;;;26.61;37.63
50172;BME280;37125;48.824;2.410;2023-07-02T02:28:43;100558.42;;;26.61;37.63
50172;BME280;37125;48.824;2.410;2023-07-02T02:29:14;100557.82;;;26.61;37.67
50172;BME280;37125;48.824;2.410;2023-07-02T02:29:44;100557.95;;;26.62;37.65
50172;BME280;37125;48.824;2.410;2023-07-02T02:30:15;100559.62;;;26.62;37.65
50172;BME280;37125;48.824;2.410;2023-07-02T02:30:46;100561.77;;;26.59;37.71
50172;BME280;37125;48.824;2.410;2023-07-02T02:31:17;100558.56;;;26.60;37.69
50172;BME280;37125;48.824;2.410;2023-07-02T02:31:47;100560.73;;;26.57;37.75
50172;BME280;37125;48.824;2.410;2023-07-02T02:32:18;100560.23;;;26.57;37.72
50172;BME280;37125;48.824;2.410;2023-07-02T02:32:49;100559.71;;;26.59;37.68
50172;BME280;37125;48.824;2.410;2023-07-02T02:33:19;100557.00;;;26.63;37.61
50172;BME280;37125;48.824;2.410;2023-07-02T02:33:50;100559.63;;;26.63;37.65
50172;BME280;37125;48.824;2.410;2023-07-02T02:34:20;100558.91;;;26.64;37.66
50172;BME280;37125;48.824;2.410;2023-07-02T02:34:51;100560.49;;;26.65;37.62
50172;BME280;37125;48.824;2.410;2023-07-02T02:35:22;100559.23;;;26.63;37.65
50172;BME280;37125;48.824;2.410;2023-07-02T02:35:52;100557.24;;;26.60;37.67
50172;BME280;37125;48.824;2.410;2023-07-02T02:36:23;100558.79;;;26.60;37.68
50172;BME280;37125;48.824;2.410;2023-07-02T02:36:53;100561.51;;;26.58;37.73
50172;BME280;37125;48.824;2.410;2023-07-02T02:37:24;100560.39;;;26.59;37.71
50172;BME280;37125;48.824;2.410;2023-07-02T02:37:54;100560.53;;;26.58;37.73
50172;BME280;37125;48.824;2.410;2023-07-02T02:38:25;100560.73;;;26.59;37.70
50172;BME280;37125;48.824;2.410;2023-07-02T02:38:55;100560.86;;;26.60;37.69
50172;BME280;37125;48.824;2.410;2023-07-02T02:39:26;100564.42;;;26.57;37.72
50172;BME280;37125;48.824;2.410;2023-07-02T02:39:57;100563.19;;;26.58;37.72
50172;BME280;37125;48.824;2.410;2023-07-02T02:40:27;100563.50;;;26.60;37.69
50172;BME280;37125;48.824;2.410;2023-07-02T02:40:58;100561.49;;;26.56;37.76
50172;BME280;37125;48.824;2.410;2023-07-02T02:41:28;100560.91;;;26.59;37.73
50172;BME280;37125;48.824;2.410;2023-07-02T02:41:59;100559.86;;;26.59;37.75
50172;BME280;37125;48.824;2.410;2023-07-02T02:42:30;100563.34;;;26.59;37.73